CFG165I EDDH-EGLL
Flight info
| Callsign | CFG165I |
|---|---|
| Flight time | 1h 16m |
| Altitude | 34000 |
| Route | WSN5G/33 WSN N125 ITMIZ DCT ABNED L980 LOGAN |
| Aircraft | A320/M-SDE3FGHIRWY/LB1 |
Departure
| Time | 2026-05-04 20:46 |
|---|---|
| Airport | Hamburg Helmut Schmidt Airport (EDDH) |
Arrival
| Time | 2026-05-04 22:02 |
|---|---|
| Airport | London Heathrow Airport (EGLL) |
| Time | Latitude | Longitude | Altitude | Speed | Heading |
|---|---|---|---|---|---|
| 2026-05-04 20:35 | 53.63247 | 10.00358 | 46 ft | 0 kts | 88° |
| 2026-05-04 20:39 | 53.63247 | 10.00349 | 46 ft | 2 kts | 88° |
| 2026-05-04 20:40 | 53.63246 | 10.00324 | 46 ft | 2 kts | 88° |
| 2026-05-04 20:40 | 53.63245 | 10.00295 | 46 ft | 2 kts | 88° |
| 2026-05-04 20:40 | 53.63247 | 10.00267 | 46 ft | 2 kts | 114° |
| 2026-05-04 20:40 | 53.63256 | 10.00243 | 43 ft | 2 kts | 168° |
| 2026-05-04 20:41 | 53.63257 | 10.00242 | 43 ft | 0 kts | 177° |
| 2026-05-04 20:42 | 53.63258 | 10.00242 | 43 ft | 0 kts | 177° |
| 2026-05-04 20:43 | 53.63237 | 10.00228 | 44 ft | 11 kts | 202° |
| 2026-05-04 20:43 | 53.63138 | 10.00189 | 45 ft | 15 kts | 179° |
| 2026-05-04 20:43 | 53.63048 | 10.00158 | 45 ft | 12 kts | 208° |
| 2026-05-04 20:43 | 53.62978 | 10.00089 | 45 ft | 11 kts | 213° |
| 2026-05-04 20:44 | 53.62928 | 10.00011 | 46 ft | 9 kts | 234° |
| 2026-05-04 20:44 | 53.62895 | 9.99911 | 46 ft | 15 kts | 243° |
| 2026-05-04 20:44 | 53.62869 | 9.99762 | 47 ft | 6 kts | 313° |
| 2026-05-04 20:44 | 53.62919 | 9.99703 | 47 ft | 14 kts | 332° |
| 2026-05-04 20:45 | 53.63048 | 9.99595 | 45 ft | 38 kts | 334° |
| 2026-05-04 20:45 | 53.63486 | 9.99211 | 46 ft | 103 kts | 333° |
| 2026-05-04 20:45 | 53.64290 | 9.98512 | 42 ft | 155 kts | 332° |
| 2026-05-04 20:45 | 53.65262 | 9.97665 | 598 ft | 155 kts | 333° |
| 2026-05-04 20:46 | 53.66225 | 9.96851 | 1312 ft | 154 kts | 333° |
| 2026-05-04 20:46 | 53.67207 | 9.96008 | 1779 ft | 167 kts | 332° |
| 2026-05-04 20:46 | 53.68283 | 9.95030 | 2166 ft | 184 kts | 329° |
| 2026-05-04 20:46 | 53.69421 | 9.93892 | 2588 ft | 198 kts | 327° |
| 2026-05-04 20:47 | 53.70641 | 9.92599 | 2959 ft | 214 kts | 320° |
| 2026-05-04 20:47 | 53.71465 | 9.90570 | 3474 ft | 221 kts | 283° |
| 2026-05-04 20:47 | 53.71365 | 9.87881 | 3806 ft | 245 kts | 252° |
| 2026-05-04 20:47 | 53.70809 | 9.85095 | 4500 ft | 256 kts | 250° |
| 2026-05-04 20:48 | 53.70183 | 9.82244 | 5334 ft | 260 kts | 249° |
| 2026-05-04 20:48 | 53.69553 | 9.79403 | 6369 ft | 257 kts | 249° |
| 2026-05-04 20:48 | 53.68929 | 9.76599 | 7312 ft | 256 kts | 249° |
| 2026-05-04 20:48 | 53.68322 | 9.73724 | 8032 ft | 263 kts | 251° |
| 2026-05-04 20:49 | 53.67743 | 9.70771 | 8846 ft | 267 kts | 251° |
| 2026-05-04 20:49 | 53.67172 | 9.67808 | 9642 ft | 272 kts | 252° |
| 2026-05-04 20:49 | 53.66586 | 9.64775 | 9969 ft | 272 kts | 251° |
| 2026-05-04 20:49 | 53.65988 | 9.61709 | 10519 ft | 281 kts | 251° |
| 2026-05-04 20:50 | 53.65297 | 9.58489 | 10745 ft | 304 kts | 245° |
| 2026-05-04 20:50 | 53.64152 | 9.55346 | 10990 ft | 325 kts | 234° |
| 2026-05-04 20:50 | 53.62804 | 9.52224 | 11572 ft | 332 kts | 234° |
| 2026-05-04 20:50 | 53.61437 | 9.49050 | 12246 ft | 337 kts | 234° |
| 2026-05-04 20:51 | 53.60053 | 9.45826 | 12898 ft | 343 kts | 234° |
| 2026-05-04 20:51 | 53.58650 | 9.42555 | 13586 ft | 347 kts | 234° |
| 2026-05-04 20:51 | 53.57229 | 9.39242 | 14214 ft | 351 kts | 234° |
| 2026-05-04 20:51 | 53.55814 | 9.35950 | 14824 ft | 354 kts | 234° |
| 2026-05-04 20:52 | 53.54363 | 9.32583 | 15476 ft | 356 kts | 235° |
| 2026-05-04 20:52 | 53.52901 | 9.29200 | 16085 ft | 359 kts | 235° |
| 2026-05-04 20:52 | 53.51428 | 9.25791 | 16703 ft | 362 kts | 235° |
| 2026-05-04 20:52 | 53.49940 | 9.22352 | 17314 ft | 365 kts | 235° |
| 2026-05-04 20:53 | 53.48438 | 9.18882 | 17927 ft | 368 kts | 235° |
| 2026-05-04 20:53 | 53.46922 | 9.15393 | 18499 ft | 372 kts | 235° |
| 2026-05-04 20:53 | 53.45392 | 9.11878 | 19040 ft | 374 kts | 235° |
| 2026-05-04 20:53 | 53.43856 | 9.08351 | 19588 ft | 376 kts | 234° |
| 2026-05-04 20:54 | 53.42307 | 9.04807 | 20156 ft | 378 kts | 234° |
| 2026-05-04 20:54 | 53.40771 | 9.01290 | 20704 ft | 380 kts | 234° |
| 2026-05-04 20:54 | 53.39203 | 8.97703 | 21207 ft | 383 kts | 234° |
| 2026-05-04 20:54 | 53.37624 | 8.94102 | 21713 ft | 385 kts | 233° |
| 2026-05-04 20:55 | 53.36032 | 8.90472 | 22227 ft | 387 kts | 234° |
| 2026-05-04 20:55 | 53.34619 | 8.86621 | 22716 ft | 390 kts | 243° |
| 2026-05-04 20:55 | 53.33593 | 8.82401 | 23189 ft | 393 kts | 249° |
| 2026-05-04 20:55 | 53.32656 | 8.78096 | 23658 ft | 395 kts | 248° |
| 2026-05-04 20:56 | 53.31706 | 8.73777 | 24069 ft | 397 kts | 248° |
| 2026-05-04 20:56 | 53.30754 | 8.69493 | 24435 ft | 399 kts | 248° |
| 2026-05-04 20:56 | 53.29784 | 8.65148 | 24827 ft | 400 kts | 248° |
| 2026-05-04 20:56 | 53.28815 | 8.60783 | 25224 ft | 401 kts | 248° |
| 2026-05-04 20:57 | 53.27851 | 8.56408 | 25606 ft | 402 kts | 248° |
| 2026-05-04 20:57 | 53.26894 | 8.52027 | 26002 ft | 402 kts | 248° |
| 2026-05-04 20:57 | 53.25952 | 8.47615 | 26382 ft | 403 kts | 249° |
| 2026-05-04 20:57 | 53.25076 | 8.43158 | 26756 ft | 405 kts | 250° |
| 2026-05-04 20:58 | 53.24245 | 8.38671 | 27126 ft | 405 kts | 251° |
| 2026-05-04 20:58 | 53.23439 | 8.34221 | 27479 ft | 406 kts | 251° |
| 2026-05-04 20:58 | 53.22619 | 8.29705 | 27824 ft | 407 kts | 251° |
| 2026-05-04 20:58 | 53.21784 | 8.25182 | 28163 ft | 408 kts | 251° |
| 2026-05-04 20:59 | 53.20936 | 8.20665 | 28484 ft | 409 kts | 250° |
| 2026-05-04 20:59 | 53.20075 | 8.16142 | 28778 ft | 410 kts | 250° |
| 2026-05-04 20:59 | 53.19202 | 8.11597 | 29043 ft | 412 kts | 250° |
| 2026-05-04 20:59 | 53.18329 | 8.07044 | 29313 ft | 413 kts | 250° |
| 2026-05-04 21:00 | 53.17461 | 8.02472 | 29586 ft | 414 kts | 250° |
| 2026-05-04 21:00 | 53.16593 | 7.97880 | 29847 ft | 415 kts | 250° |
| 2026-05-04 21:00 | 53.15727 | 7.93299 | 30173 ft | 414 kts | 250° |
| 2026-05-04 21:00 | 53.14876 | 7.88796 | 30478 ft | 412 kts | 250° |
| 2026-05-04 21:01 | 53.14016 | 7.84245 | 30771 ft | 411 kts | 250° |
| 2026-05-04 21:01 | 53.13156 | 7.79713 | 31058 ft | 410 kts | 250° |
| 2026-05-04 21:01 | 53.12292 | 7.75186 | 31368 ft | 409 kts | 250° |
| 2026-05-04 21:01 | 53.11429 | 7.70676 | 31651 ft | 408 kts | 250° |
| 2026-05-04 21:02 | 53.10555 | 7.66189 | 31943 ft | 407 kts | 248° |
| 2026-05-04 21:02 | 53.09478 | 7.61837 | 32197 ft | 407 kts | 245° |
| 2026-05-04 21:02 | 53.08369 | 7.57494 | 32419 ft | 408 kts | 245° |
| 2026-05-04 21:02 | 53.07274 | 7.53207 | 32683 ft | 408 kts | 245° |
| 2026-05-04 21:03 | 53.06167 | 7.48879 | 32962 ft | 407 kts | 246° |
| 2026-05-04 21:03 | 53.05060 | 7.44555 | 33253 ft | 406 kts | 246° |
| 2026-05-04 21:03 | 53.03954 | 7.40240 | 33552 ft | 405 kts | 246° |
| 2026-05-04 21:03 | 53.02850 | 7.35942 | 33851 ft | 404 kts | 246° |
| 2026-05-04 21:04 | 53.01750 | 7.31654 | 33990 ft | 403 kts | 245° |
| 2026-05-04 21:04 | 53.00653 | 7.27373 | 34011 ft | 403 kts | 245° |
| 2026-05-04 21:04 | 52.98461 | 7.18887 | 34013 ft | 402 kts | 245° |
| 2026-05-04 21:05 | 52.96246 | 7.10369 | 34026 ft | 402 kts | 245° |
| 2026-05-04 21:05 | 52.94018 | 7.01819 | 34017 ft | 405 kts | 245° |
| 2026-05-04 21:06 | 52.91780 | 6.93237 | 34015 ft | 406 kts | 245° |
| 2026-05-04 21:06 | 52.89720 | 6.84607 | 34013 ft | 406 kts | 248° |
| 2026-05-04 21:07 | 52.87871 | 6.75771 | 34007 ft | 406 kts | 249° |
| 2026-05-04 21:07 | 52.86037 | 6.66929 | 34006 ft | 406 kts | 249° |
| 2026-05-04 21:08 | 52.84139 | 6.58134 | 34007 ft | 406 kts | 248° |
| 2026-05-04 21:08 | 52.82194 | 6.49350 | 33989 ft | 407 kts | 248° |
| 2026-05-04 21:09 | 52.80257 | 6.40612 | 33992 ft | 408 kts | 248° |
| 2026-05-04 21:09 | 52.78306 | 6.31793 | 33986 ft | 409 kts | 248° |
| 2026-05-04 21:10 | 52.76358 | 6.22975 | 33993 ft | 409 kts | 248° |
| 2026-05-04 21:10 | 52.74396 | 6.14151 | 33996 ft | 409 kts | 248° |
| 2026-05-04 21:11 | 52.72421 | 6.05338 | 33995 ft | 409 kts | 248° |
| 2026-05-04 21:11 | 52.70448 | 5.96590 | 33990 ft | 410 kts | 248° |
| 2026-05-04 21:12 | 52.68457 | 5.87759 | 33990 ft | 412 kts | 248° |
| 2026-05-04 21:12 | 52.66457 | 5.78910 | 33995 ft | 412 kts | 248° |
| 2026-05-04 21:13 | 52.64440 | 5.70060 | 33996 ft | 413 kts | 248° |
| 2026-05-04 21:13 | 52.62432 | 5.61277 | 34001 ft | 413 kts | 247° |
| 2026-05-04 21:14 | 52.60403 | 5.52437 | 34007 ft | 413 kts | 247° |
| 2026-05-04 21:14 | 52.58364 | 5.43582 | 34005 ft | 415 kts | 248° |
| 2026-05-04 21:15 | 52.56313 | 5.34706 | 34002 ft | 416 kts | 248° |
| 2026-05-04 21:15 | 52.54255 | 5.25866 | 34000 ft | 417 kts | 247° |
| 2026-05-04 21:16 | 52.52174 | 5.16968 | 33997 ft | 418 kts | 247° |
| 2026-05-04 21:16 | 52.50087 | 5.08057 | 33996 ft | 418 kts | 247° |
| 2026-05-04 21:17 | 52.47994 | 4.99142 | 34009 ft | 419 kts | 247° |
| 2026-05-04 21:17 | 52.45888 | 4.90230 | 34013 ft | 419 kts | 248° |
| 2026-05-04 21:18 | 52.43789 | 4.81375 | 34018 ft | 420 kts | 248° |
| 2026-05-04 21:18 | 52.41660 | 4.72455 | 34008 ft | 421 kts | 247° |
| 2026-05-04 21:19 | 52.39525 | 4.63530 | 33981 ft | 422 kts | 247° |
| 2026-05-04 21:19 | 52.37379 | 4.54580 | 33984 ft | 423 kts | 247° |
| 2026-05-04 21:20 | 52.35236 | 4.45691 | 33987 ft | 423 kts | 247° |
| 2026-05-04 21:20 | 52.33069 | 4.36763 | 33986 ft | 423 kts | 247° |
| 2026-05-04 21:21 | 52.30897 | 4.27818 | 34002 ft | 423 kts | 247° |
| 2026-05-04 21:21 | 52.28722 | 4.18876 | 34001 ft | 423 kts | 247° |
| 2026-05-04 21:22 | 52.26537 | 4.09957 | 34011 ft | 423 kts | 247° |
| 2026-05-04 21:22 | 52.24355 | 4.01106 | 34012 ft | 423 kts | 247° |
| 2026-05-04 21:23 | 52.22150 | 3.92197 | 34032 ft | 423 kts | 247° |
| 2026-05-04 21:23 | 52.19943 | 3.83317 | 34019 ft | 423 kts | 247° |
| 2026-05-04 21:24 | 52.17732 | 3.74442 | 34015 ft | 423 kts | 247° |
| 2026-05-04 21:24 | 52.15514 | 3.65569 | 34014 ft | 423 kts | 247° |
| 2026-05-04 21:25 | 52.13306 | 3.56769 | 34009 ft | 423 kts | 247° |
| 2026-05-04 21:25 | 52.11073 | 3.47907 | 34009 ft | 423 kts | 246° |
| 2026-05-04 21:26 | 52.08831 | 3.39061 | 34023 ft | 423 kts | 246° |
| 2026-05-04 21:26 | 52.06585 | 3.30220 | 34027 ft | 423 kts | 246° |
| 2026-05-04 21:27 | 52.04336 | 3.21389 | 34027 ft | 423 kts | 246° |
| 2026-05-04 21:27 | 52.02091 | 3.12643 | 34032 ft | 422 kts | 246° |
| 2026-05-04 21:28 | 51.99829 | 3.03858 | 34026 ft | 422 kts | 246° |
| 2026-05-04 21:28 | 51.97561 | 2.95073 | 34020 ft | 422 kts | 246° |
| 2026-05-04 21:29 | 51.95285 | 2.86283 | 34019 ft | 423 kts | 246° |
| 2026-05-04 21:29 | 51.92995 | 2.77482 | 34016 ft | 424 kts | 246° |
| 2026-05-04 21:30 | 51.90722 | 2.68766 | 33346 ft | 423 kts | 246° |
| 2026-05-04 21:30 | 51.89571 | 2.64367 | 32409 ft | 425 kts | 246° |
| 2026-05-04 21:30 | 51.88410 | 2.59945 | 31476 ft | 428 kts | 245° |
| 2026-05-04 21:31 | 51.86065 | 2.51049 | 29813 ft | 429 kts | 245° |
| 2026-05-04 21:31 | 51.84899 | 2.46644 | 29085 ft | 425 kts | 245° |
| 2026-05-04 21:31 | 51.83741 | 2.42274 | 28405 ft | 420 kts | 246° |
| 2026-05-04 21:32 | 51.82595 | 2.37938 | 28022 ft | 418 kts | 246° |
| 2026-05-04 21:32 | 51.81452 | 2.33623 | 27859 ft | 418 kts | 246° |
| 2026-05-04 21:32 | 51.80322 | 2.29365 | 27714 ft | 418 kts | 246° |
| 2026-05-04 21:32 | 51.79223 | 2.25027 | 27547 ft | 417 kts | 250° |
| 2026-05-04 21:33 | 51.78465 | 2.20519 | 27374 ft | 417 kts | 258° |
| 2026-05-04 21:33 | 51.78081 | 2.15867 | 27020 ft | 418 kts | 263° |
| 2026-05-04 21:33 | 51.77808 | 2.11203 | 26570 ft | 415 kts | 263° |
| 2026-05-04 21:33 | 51.77538 | 2.06581 | 26112 ft | 412 kts | 263° |
| 2026-05-04 21:34 | 51.77269 | 2.02001 | 25659 ft | 409 kts | 263° |
| 2026-05-04 21:34 | 51.76998 | 1.97440 | 25216 ft | 407 kts | 264° |
| 2026-05-04 21:34 | 51.76731 | 1.92952 | 24795 ft | 406 kts | 262° |
| 2026-05-04 21:34 | 51.76460 | 1.88437 | 24363 ft | 404 kts | 263° |
| 2026-05-04 21:35 | 51.76186 | 1.83947 | 23941 ft | 400 kts | 263° |
| 2026-05-04 21:35 | 51.75912 | 1.79490 | 23503 ft | 399 kts | 263° |
| 2026-05-04 21:35 | 51.75635 | 1.75039 | 23003 ft | 398 kts | 263° |
| 2026-05-04 21:35 | 51.75359 | 1.70608 | 22514 ft | 395 kts | 263° |
| 2026-05-04 21:36 | 51.75086 | 1.66221 | 22032 ft | 391 kts | 263° |
| 2026-05-04 21:36 | 51.74814 | 1.61871 | 21558 ft | 389 kts | 264° |
| 2026-05-04 21:36 | 51.74540 | 1.57541 | 21092 ft | 387 kts | 263° |
| 2026-05-04 21:36 | 51.74265 | 1.53229 | 20638 ft | 386 kts | 263° |
| 2026-05-04 21:37 | 51.73993 | 1.49005 | 20191 ft | 383 kts | 263° |
| 2026-05-04 21:37 | 51.73719 | 1.44765 | 19741 ft | 377 kts | 262° |
| 2026-05-04 21:37 | 51.73455 | 1.40640 | 19300 ft | 361 kts | 262° |
| 2026-05-04 21:37 | 51.73203 | 1.36700 | 18869 ft | 346 kts | 263° |
| 2026-05-04 21:38 | 51.72956 | 1.32918 | 18446 ft | 333 kts | 263° |
| 2026-05-04 21:38 | 51.72713 | 1.29265 | 18059 ft | 325 kts | 263° |
| 2026-05-04 21:38 | 51.72472 | 1.25660 | 17719 ft | 322 kts | 262° |
| 2026-05-04 21:38 | 51.72234 | 1.22085 | 17398 ft | 320 kts | 263° |
| 2026-05-04 21:39 | 51.71993 | 1.18560 | 17091 ft | 320 kts | 262° |
| 2026-05-04 21:39 | 51.71748 | 1.14997 | 16776 ft | 319 kts | 263° |
| 2026-05-04 21:39 | 51.71492 | 1.11446 | 16466 ft | 318 kts | 263° |
| 2026-05-04 21:39 | 51.71240 | 1.07916 | 16160 ft | 317 kts | 263° |
| 2026-05-04 21:40 | 51.70986 | 1.04387 | 15852 ft | 316 kts | 263° |
| 2026-05-04 21:40 | 51.70731 | 1.00872 | 15554 ft | 315 kts | 263° |
| 2026-05-04 21:40 | 51.70472 | 0.97371 | 15264 ft | 314 kts | 263° |
| 2026-05-04 21:40 | 51.70210 | 0.93878 | 14963 ft | 313 kts | 263° |
| 2026-05-04 21:41 | 51.69944 | 0.90407 | 14674 ft | 311 kts | 262° |
| 2026-05-04 21:41 | 51.69678 | 0.86953 | 14380 ft | 310 kts | 263° |
| 2026-05-04 21:41 | 51.69409 | 0.83516 | 14097 ft | 309 kts | 262° |
| 2026-05-04 21:41 | 51.69142 | 0.80135 | 13811 ft | 308 kts | 263° |
| 2026-05-04 21:42 | 51.68870 | 0.76727 | 13491 ft | 306 kts | 262° |
| 2026-05-04 21:42 | 51.68596 | 0.73326 | 13175 ft | 304 kts | 262° |
| 2026-05-04 21:42 | 51.68323 | 0.69959 | 12857 ft | 303 kts | 262° |
| 2026-05-04 21:42 | 51.68050 | 0.66602 | 12544 ft | 301 kts | 262° |
| 2026-05-04 21:43 | 51.67779 | 0.63273 | 12230 ft | 299 kts | 262° |
| 2026-05-04 21:43 | 51.67509 | 0.59967 | 11927 ft | 297 kts | 262° |
| 2026-05-04 21:43 | 51.67240 | 0.56681 | 11623 ft | 295 kts | 262° |
| 2026-05-04 21:43 | 51.66971 | 0.53413 | 11321 ft | 293 kts | 262° |
| 2026-05-04 21:44 | 51.66704 | 0.50172 | 11029 ft | 292 kts | 262° |
| 2026-05-04 21:44 | 51.66437 | 0.46932 | 10730 ft | 291 kts | 262° |
| 2026-05-04 21:44 | 51.66179 | 0.43756 | 10441 ft | 289 kts | 262° |
| 2026-05-04 21:44 | 51.65920 | 0.40551 | 10144 ft | 288 kts | 262° |
| 2026-05-04 21:45 | 51.65664 | 0.37367 | 9855 ft | 286 kts | 262° |
| 2026-05-04 21:45 | 51.65409 | 0.34202 | 9535 ft | 284 kts | 262° |
| 2026-05-04 21:45 | 51.65151 | 0.31056 | 9219 ft | 282 kts | 262° |
| 2026-05-04 21:45 | 51.64891 | 0.27933 | 8903 ft | 280 kts | 262° |
| 2026-05-04 21:46 | 51.64630 | 0.24829 | 8591 ft | 279 kts | 262° |
| 2026-05-04 21:46 | 51.64364 | 0.21755 | 8284 ft | 276 kts | 262° |
| 2026-05-04 21:46 | 51.64097 | 0.18708 | 7975 ft | 274 kts | 262° |
| 2026-05-04 21:46 | 51.63829 | 0.15725 | 7681 ft | 271 kts | 262° |
| 2026-05-04 21:47 | 51.63555 | 0.12733 | 7382 ft | 270 kts | 262° |
| 2026-05-04 21:47 | 51.63281 | 0.09744 | 7086 ft | 270 kts | 262° |
| 2026-05-04 21:47 | 51.63005 | 0.06767 | 6787 ft | 268 kts | 262° |
| 2026-05-04 21:47 | 51.62731 | 0.03809 | 6499 ft | 267 kts | 262° |
| 2026-05-04 21:48 | 51.62450 | 0.00823 | 6186 ft | 266 kts | 262° |
| 2026-05-04 21:48 | 51.62176 | -0.02062 | 5875 ft | 265 kts | 262° |
| 2026-05-04 21:48 | 51.61902 | -0.04986 | 5566 ft | 263 kts | 262° |
| 2026-05-04 21:48 | 51.61626 | -0.07880 | 5261 ft | 262 kts | 262° |
| 2026-05-04 21:49 | 51.61341 | -0.10770 | 4964 ft | 262 kts | 262° |
| 2026-05-04 21:49 | 51.61058 | -0.13666 | 4652 ft | 262 kts | 262° |
| 2026-05-04 21:49 | 51.60768 | -0.16566 | 4339 ft | 263 kts | 262° |
| 2026-05-04 21:49 | 51.60490 | -0.19478 | 4030 ft | 264 kts | 262° |
| 2026-05-04 21:50 | 51.60207 | -0.22401 | 3717 ft | 265 kts | 262° |
| 2026-05-04 21:50 | 51.59917 | -0.25317 | 3308 ft | 263 kts | 262° |
| 2026-05-04 21:50 | 51.59637 | -0.28188 | 3022 ft | 264 kts | 262° |
| 2026-05-04 21:50 | 51.59356 | -0.31110 | 3005 ft | 266 kts | 262° |
| 2026-05-04 21:51 | 51.59071 | -0.34054 | 3007 ft | 266 kts | 262° |
| 2026-05-04 21:51 | 51.58787 | -0.36980 | 3009 ft | 267 kts | 262° |
| 2026-05-04 21:51 | 51.58502 | -0.39938 | 3008 ft | 266 kts | 262° |
| 2026-05-04 21:51 | 51.58218 | -0.42878 | 3008 ft | 266 kts | 262° |
| 2026-05-04 21:52 | 51.57931 | -0.45823 | 3011 ft | 267 kts | 262° |
| 2026-05-04 21:52 | 51.57643 | -0.48768 | 3010 ft | 267 kts | 262° |
| 2026-05-04 21:52 | 51.57353 | -0.51721 | 3009 ft | 268 kts | 262° |
| 2026-05-04 21:52 | 51.57066 | -0.54646 | 3010 ft | 268 kts | 262° |
| 2026-05-04 21:53 | 51.56788 | -0.57581 | 2853 ft | 259 kts | 262° |
| 2026-05-04 21:53 | 51.56530 | -0.60328 | 2663 ft | 242 kts | 262° |
| 2026-05-04 21:53 | 51.56285 | -0.62956 | 2523 ft | 237 kts | 262° |
| 2026-05-04 21:53 | 51.56039 | -0.65570 | 2503 ft | 236 kts | 262° |
| 2026-05-04 21:54 | 51.55794 | -0.68185 | 2507 ft | 237 kts | 262° |
| 2026-05-04 21:54 | 51.55549 | -0.70809 | 2509 ft | 238 kts | 262° |
| 2026-05-04 21:54 | 51.55301 | -0.73429 | 2511 ft | 237 kts | 262° |
| 2026-05-04 21:54 | 51.55057 | -0.76047 | 2508 ft | 237 kts | 262° |
| 2026-05-04 21:55 | 51.54812 | -0.78629 | 2514 ft | 237 kts | 262° |
| 2026-05-04 21:55 | 51.54332 | -0.81138 | 2510 ft | 236 kts | 237° |
| 2026-05-04 21:55 | 51.53165 | -0.82940 | 2508 ft | 230 kts | 207° |
| 2026-05-04 21:55 | 51.51729 | -0.83708 | 2500 ft | 206 kts | 186° |
| 2026-05-04 21:56 | 51.50342 | -0.83947 | 2499 ft | 197 kts | 182° |
| 2026-05-04 21:56 | 51.49014 | -0.83810 | 2502 ft | 188 kts | 151° |
| 2026-05-04 21:56 | 51.48170 | -0.82362 | 2523 ft | 179 kts | 106° |
| 2026-05-04 21:56 | 51.47918 | -0.80437 | 2504 ft | 173 kts | 94° |
| 2026-05-04 21:57 | 51.47853 | -0.78537 | 2504 ft | 170 kts | 93° |
| 2026-05-04 21:57 | 51.47709 | -0.76672 | 2553 ft | 168 kts | 96° |
| 2026-05-04 21:57 | 51.47565 | -0.74823 | 2522 ft | 167 kts | 88° |
| 2026-05-04 21:57 | 51.47601 | -0.72972 | 2503 ft | 163 kts | 87° |
| 2026-05-04 21:58 | 51.47621 | -0.71204 | 2499 ft | 159 kts | 88° |
| 2026-05-04 21:58 | 51.47636 | -0.69437 | 2498 ft | 158 kts | 88° |
| 2026-05-04 21:58 | 51.47650 | -0.67675 | 2454 ft | 159 kts | 88° |
| 2026-05-04 21:58 | 51.47662 | -0.65915 | 2261 ft | 158 kts | 88° |
| 2026-05-04 21:59 | 51.47673 | -0.64169 | 2055 ft | 155 kts | 87° |
| 2026-05-04 21:59 | 51.47682 | -0.62448 | 1858 ft | 155 kts | 87° |
| 2026-05-04 21:59 | 51.47692 | -0.60726 | 1646 ft | 154 kts | 88° |
| 2026-05-04 21:59 | 51.47700 | -0.59012 | 1440 ft | 153 kts | 87° |
| 2026-05-04 22:00 | 51.47709 | -0.57303 | 1220 ft | 153 kts | 88° |
| 2026-05-04 22:00 | 51.47717 | -0.55594 | 1010 ft | 154 kts | 87° |
| 2026-05-04 22:00 | 51.47725 | -0.53886 | 795 ft | 157 kts | 87° |
| 2026-05-04 22:00 | 51.47734 | -0.52140 | 569 ft | 157 kts | 87° |
| 2026-05-04 22:01 | 51.47740 | -0.50382 | 370 ft | 157 kts | 87° |
| 2026-05-04 22:01 | 51.47747 | -0.48653 | 167 ft | 154 kts | 87° |
| 2026-05-04 22:01 | 51.47745 | -0.47009 | 95 ft | 132 kts | 88° |
| 2026-05-04 22:01 | 51.47768 | -0.45818 | 88 ft | 72 kts | 89° |
| 2026-05-04 22:02 | 51.47762 | -0.45497 | 88 ft | 19 kts | 95° |
| 2026-05-04 22:02 | 51.47757 | -0.45141 | 94 ft | 37 kts | 89° |
| 2026-05-04 22:02 | 51.47762 | -0.44675 | 95 ft | 46 kts | 90° |
| 2026-05-04 22:02 | 51.47712 | -0.44455 | 92 ft | 14 kts | 97° |
| 2026-05-04 22:03 | 51.47683 | -0.44320 | 91 ft | 0 kts | 115° |
| 2026-05-04 22:03 | 51.47672 | -0.44284 | 91 ft | 13 kts | 115° |
| 2026-05-04 22:04 | 51.47650 | -0.44258 | 90 ft | 6 kts | 149° |
| 2026-05-04 22:04 | 51.47615 | -0.44213 | 89 ft | 6 kts | 128° |
| 2026-05-04 22:04 | 51.47592 | -0.44126 | 90 ft | 16 kts | 113° |
| 2026-05-04 22:04 | 51.47524 | -0.44069 | 91 ft | 17 kts | 167° |
| 2026-05-04 22:05 | 51.47413 | -0.44061 | 92 ft | 16 kts | 179° |
| 2026-05-04 22:05 | 51.47309 | -0.44061 | 90 ft | 8 kts | 185° |
| 2026-05-04 22:05 | 51.47308 | -0.44062 | 91 ft | 0 kts | 185° |